South River, New Jersey
Current Conditions -  °F | °C
As of 11:35 AM on Monday 22 Dec 2014 (Local Time) from KLDJ Reporting Station
Overcast Overcast  
Wind Chill:   Ceiling: 1000
Heat Index:   Visibility: 7mi
Dew Point:   Wind: 6mph
Humidity: 80%   Direction: 40°NE
Pressure: 30.32"   Gusts: NA
Location:  40.45°N, 74.38°W
Report Text: KLDJ 221635Z AUTO 04005KT 7SM OVC010 06/03 A3032 RMK AO2 T00630030
Loading
Personal Weather Stations






























Interactive Weather Map New forecast layout! Learn more

10-Day Weather Forecast

Advertisements
Track Severe Weather on mobile